sensor_id;sensor_type;location;lat;lon;timestamp;temperature;humidity
16643;DHT22;8435;52.184;5.406;2022-11-15T00:00:56;9.50;99.90
16643;DHT22;8435;52.184;5.406;2022-11-15T00:03:25;9.50;99.90
16643;DHT22;8435;52.184;5.406;2022-11-15T00:05:52;9.50;99.90
16643;DHT22;8435;52.184;5.406;2022-11-15T00:08:29;9.50;99.90
16643;DHT22;8435;52.184;5.406;2022-11-15T00:10:56;9.50;99.90
16643;DHT22;8435;52.184;5.406;2022-11-15T00:13:23;9.50;99.90
16643;DHT22;8435;52.184;5.406;2022-11-15T00:15:50;9.60;99.90
16643;DHT22;8435;52.184;5.406;2022-11-15T00:18:17;9.50;99.90
16643;DHT22;8435;52.184;5.406;2022-11-15T00:20:44;9.60;99.90
16643;DHT22;8435;52.184;5.406;2022-11-15T00:23:11;9.60;99.90
16643;DHT22;8435;52.184;5.406;2022-11-15T00:25:39;9.60;99.90
16643;DHT22;8435;52.184;5.406;2022-11-15T00:28:06;9.60;99.90
16643;DHT22;8435;52.184;5.406;2022-11-15T00:30:33;9.60;99.90
16643;DHT22;8435;52.184;5.406;2022-11-15T00:33:02;9.60;99.90
16643;DHT22;8435;52.184;5.406;2022-11-15T00:35:31;9.60;99.90
16643;DHT22;8435;52.184;5.406;2022-11-15T00:38:01;9.70;99.90
16643;DHT22;8435;52.184;5.406;2022-11-15T00:40:28;9.70;99.90
16643;DHT22;8435;52.184;5.406;2022-11-15T00:42:56;9.70;99.90
16643;DHT22;8435;52.184;5.406;2022-11-15T00:45:24;9.70;99.90
16643;DHT22;8435;52.184;5.406;2022-11-15T00:47:51;9.70;99.90
16643;DHT22;8435;52.184;5.406;2022-11-15T00:50:18;9.70;99.90
16643;DHT22;8435;52.184;5.406;2022-11-15T00:52:45;9.70;99.90
16643;DHT22;8435;52.184;5.406;2022-11-15T00:55:16;9.70;99.90
16643;DHT22;8435;52.184;5.406;2022-11-15T00:57:43;9.70;99.90
16643;DHT22;8435;52.184;5.406;2022-11-15T01:00:13;9.70;99.90
16643;DHT22;8435;52.184;5.406;2022-11-15T01:02:39;9.70;99.90
16643;DHT22;8435;52.184;5.406;2022-11-15T01:05:09;9.70;99.90
16643;DHT22;8435;52.184;5.406;2022-11-15T01:07:36;9.80;99.90
16643;DHT22;8435;52.184;5.406;2022-11-15T01:10:04;9.80;99.90
16643;DHT22;8435;52.184;5.406;2022-11-15T01:12:31;9.80;99.90
16643;DHT22;8435;52.184;5.406;2022-11-15T01:14:58;9.70;99.90
16643;DHT22;8435;52.184;5.406;2022-11-15T01:17:26;9.80;99.90
16643;DHT22;8435;52.184;5.406;2022-11-15T01:19:53;9.80;99.90
16643;DHT22;8435;52.184;5.406;2022-11-15T01:22:20;9.80;99.90
16643;DHT22;8435;52.184;5.406;2022-11-15T01:24:47;9.80;99.90
16643;DHT22;8435;52.184;5.406;2022-11-15T01:27:13;9.80;99.90
16643;DHT22;8435;52.184;5.406;2022-11-15T01:29:40;9.80;99.90
16643;DHT22;8435;52.184;5.406;2022-11-15T01:32:07;9.90;99.90
16643;DHT22;8435;52.184;5.406;2022-11-15T01:34:35;9.90;99.90
16643;DHT22;8435;52.184;5.406;2022-11-15T01:37:02;9.90;99.90
16643;DHT22;8435;52.184;5.406;2022-11-15T01:39:29;9.90;99.90
16643;DHT22;8435;52.184;5.406;2022-11-15T01:41:56;10.00;99.90
16643;DHT22;8435;52.184;5.406;2022-11-15T01:44:39;10.00;99.90
16643;DHT22;8435;52.184;5.406;2022-11-15T01:47:10;10.00;99.90
16643;DHT22;8435;52.184;5.406;2022-11-15T01:49:45;10.00;99.90
16643;DHT22;8435;52.184;5.406;2022-11-15T01:52:17;10.10;99.90
16643;DHT22;8435;52.184;5.406;2022-11-15T01:54:46;10.10;99.90
16643;DHT22;8435;52.184;5.406;2022-11-15T01:57:15;10.10;99.90
16643;DHT22;8435;52.184;5.406;2022-11-15T01:59:43;10.10;99.90
16643;DHT22;8435;52.184;5.406;2022-11-15T02:02:11;10.10;99.90
16643;DHT22;8435;52.184;5.406;2022-11-15T02:04:42;10.20;99.90
16643;DHT22;8435;52.184;5.406;2022-11-15T02:07:11;10.20;99.90
16643;DHT22;8435;52.184;5.406;2022-11-15T02:09:39;10.30;99.90
16643;DHT22;8435;52.184;5.406;2022-11-15T02:12:07;10.30;99.90
16643;DHT22;8435;52.184;5.406;2022-11-15T02:14:36;10.30;99.90
16643;DHT22;8435;52.184;5.406;2022-11-15T02:17:13;10.30;99.90
16643;DHT22;8435;52.184;5.406;2022-11-15T02:22:51;10.40;99.90
16643;DHT22;8435;52.184;5.406;2022-11-15T02:25:38;10.40;99.90
16643;DHT22;8435;52.184;5.406;2022-11-15T02:28:25;10.50;99.90
16643;DHT22;8435;52.184;5.406;2022-11-15T02:31:01;10.50;99.90
16643;DHT22;8435;52.184;5.406;2022-11-15T02:33:35;10.50;99.90
16643;DHT22;8435;52.184;5.406;2022-11-15T02:36:09;10.60;99.90
16643;DHT22;8435;52.184;5.406;2022-11-15T02:38:43;10.60;99.90
16643;DHT22;8435;52.184;5.406;2022-11-15T02:41:15;10.70;99.90
16643;DHT22;8435;52.184;5.406;2022-11-15T02:43:48;10.70;99.90
16643;DHT22;8435;52.184;5.406;2022-11-15T02:46:31;10.80;99.90
16643;DHT22;8435;52.184;5.406;2022-11-15T02:49:17;10.80;99.90
16643;DHT22;8435;52.184;5.406;2022-11-15T02:51:47;10.80;99.90
16643;DHT22;8435;52.184;5.406;2022-11-15T02:54:17;10.90;99.90
16643;DHT22;8435;52.184;5.406;2022-11-15T02:56:47;10.90;99.90
16643;DHT22;8435;52.184;5.406;2022-11-15T02:59:43;10.90;99.90
16643;DHT22;8435;52.184;5.406;2022-11-15T03:02:20;10.90;99.90
16643;DHT22;8435;52.184;5.406;2022-11-15T03:04:53;11.00;99.90
16643;DHT22;8435;52.184;5.406;2022-11-15T03:07:25;11.00;99.90
16643;DHT22;8435;52.184;5.406;2022-11-15T03:10:04;11.10;99.90
16643;DHT22;8435;52.184;5.406;2022-11-15T03:12:38;11.10;99.90
16643;DHT22;8435;52.184;5.406;2022-11-15T03:15:17;11.10;99.90
16643;DHT22;8435;52.184;5.406;2022-11-15T03:17:51;11.10;99.90
16643;DHT22;8435;52.184;5.406;2022-11-15T03:20:21;11.20;99.90
16643;DHT22;8435;52.184;5.406;2022-11-15T03:22:49;11.20;99.90
16643;DHT22;8435;52.184;5.406;2022-11-15T03:25:20;11.20;99.90
16643;DHT22;8435;52.184;5.406;2022-11-15T03:27:51;11.30;99.90
16643;DHT22;8435;52.184;5.406;2022-11-15T03:30:19;11.30;99.90
16643;DHT22;8435;52.184;5.406;2022-11-15T03:32:51;11.30;99.90
16643;DHT22;8435;52.184;5.406;2022-11-15T03:35:21;11.30;99.90
16643;DHT22;8435;52.184;5.406;2022-11-15T03:37:51;11.40;99.90
16643;DHT22;8435;52.184;5.406;2022-11-15T03:40:22;11.40;99.90
16643;DHT22;8435;52.184;5.406;2022-11-15T03:42:55;11.40;99.90
16643;DHT22;8435;52.184;5.406;2022-11-15T03:45:27;11.50;99.90
16643;DHT22;8435;52.184;5.406;2022-11-15T03:48:02;11.50;99.90
16643;DHT22;8435;52.184;5.406;2022-11-15T03:50:31;11.50;99.90
16643;DHT22;8435;52.184;5.406;2022-11-15T03:52:58;11.50;99.90
16643;DHT22;8435;52.184;5.406;2022-11-15T03:55:26;11.60;99.90
16643;DHT22;8435;52.184;5.406;2022-11-15T03:57:55;11.60;99.90
16643;DHT22;8435;52.184;5.406;2022-11-15T04:00:24;11.60;99.90
16643;DHT22;8435;52.184;5.406;2022-11-15T04:02:51;11.60;99.90
16643;DHT22;8435;52.184;5.406;2022-11-15T04:05:19;11.70;99.90
16643;DHT22;8435;52.184;5.406;2022-11-15T04:07:45;11.70;99.90
16643;DHT22;8435;52.184;5.406;2022-11-15T04:10:14;11.70;99.90
16643;DHT22;8435;52.184;5.406;2022-11-15T04:12:43;11.80;99.90
16643;DHT22;8435;52.184;5.406;2022-11-15T04:15:17;11.80;99.90
16643;DHT22;8435;52.184;5.406;2022-11-15T04:17:45;11.80;99.90
16643;DHT22;8435;52.184;5.406;2022-11-15T04:20:15;11.90;99.90
16643;DHT22;8435;52.184;5.406;2022-11-15T04:23:03;11.80;99.90
16643;DHT22;8435;52.184;5.406;2022-11-15T04:25:50;11.90;99.90
16643;DHT22;8435;52.184;5.406;2022-11-15T04:28:17;11.90;99.90
16643;DHT22;8435;52.184;5.406;2022-11-15T04:30:44;12.00;99.90
16643;DHT22;8435;52.184;5.406;2022-11-15T04:33:11;12.00;99.90
16643;DHT22;8435;52.184;5.406;2022-11-15T04:35:40;12.00;99.90
16643;DHT22;8435;52.184;5.406;2022-11-15T04:38:10;12.00;99.90
16643;DHT22;8435;52.184;5.406;2022-11-15T04:40:36;12.10;99.90
16643;DHT22;8435;52.184;5.406;2022-11-15T04:43:04;12.10;99.90
16643;DHT22;8435;52.184;5.406;2022-11-15T04:45:30;12.10;99.90
16643;DHT22;8435;52.184;5.406;2022-11-15T04:47:57;12.20;99.90
16643;DHT22;8435;52.184;5.406;2022-11-15T04:50:24;12.10;99.90
16643;DHT22;8435;52.184;5.406;2022-11-15T04:52:52;12.10;99.90
16643;DHT22;8435;52.184;5.406;2022-11-15T04:55:21;12.20;99.90
16643;DHT22;8435;52.184;5.406;2022-11-15T04:57:50;12.20;99.90
16643;DHT22;8435;52.184;5.406;2022-11-15T05:00:23;12.20;99.90
16643;DHT22;8435;52.184;5.406;2022-11-15T05:02:50;12.20;99.90
16643;DHT22;8435;52.184;5.406;2022-11-15T05:05:35;12.20;99.90
16643;DHT22;8435;52.184;5.406;2022-11-15T05:08:02;12.30;99.90
16643;DHT22;8435;52.184;5.406;2022-11-15T05:10:33;12.30;99.90
16643;DHT22;8435;52.184;5.406;2022-11-15T05:13:00;12.30;99.90
16643;DHT22;8435;52.184;5.406;2022-11-15T05:15:26;12.30;99.90
16643;DHT22;8435;52.184;5.406;2022-11-15T05:17:59;12.40;99.90
16643;DHT22;8435;52.184;5.406;2022-11-15T05:20:26;12.30;99.90
16643;DHT22;8435;52.184;5.406;2022-11-15T05:22:53;12.40;99.90
16643;DHT22;8435;52.184;5.406;2022-11-15T05:25:20;12.40;99.90
16643;DHT22;8435;52.184;5.406;2022-11-15T05:27:48;12.50;99.90
16643;DHT22;8435;52.184;5.406;2022-11-15T05:30:16;12.50;99.90
16643;DHT22;8435;52.184;5.406;2022-11-15T05:32:42;12.50;99.90
16643;DHT22;8435;52.184;5.406;2022-11-15T05:35:13;12.50;99.90
16643;DHT22;8435;52.184;5.406;2022-11-15T05:37:41;12.50;99.90
16643;DHT22;8435;52.184;5.406;2022-11-15T05:40:08;12.50;99.90
16643;DHT22;8435;52.184;5.406;2022-11-15T05:42:35;12.50;99.90
16643;DHT22;8435;52.184;5.406;2022-11-15T05:45:05;12.50;99.90
16643;DHT22;8435;52.184;5.406;2022-11-15T05:47:35;12.50;99.90
16643;DHT22;8435;52.184;5.406;2022-11-15T05:50:04;12.50;99.90
16643;DHT22;8435;52.184;5.406;2022-11-15T05:52:34;12.50;99.90
16643;DHT22;8435;52.184;5.406;2022-11-15T05:55:04;12.60;99.90
16643;DHT22;8435;52.184;5.406;2022-11-15T05:57:31;12.60;99.90
16643;DHT22;8435;52.184;5.406;2022-11-15T05:59:58;12.60;99.90
16643;DHT22;8435;52.184;5.406;2022-11-15T06:02:26;12.60;99.90
16643;DHT22;8435;52.184;5.406;2022-11-15T06:04:53;12.60;99.90
16643;DHT22;8435;52.184;5.406;2022-11-15T06:07:20;12.70;99.90
16643;DHT22;8435;52.184;5.406;2022-11-15T06:09:47;12.60;99.90
16643;DHT22;8435;52.184;5.406;2022-11-15T06:12:14;12.70;99.90
16643;DHT22;8435;52.184;5.406;2022-11-15T06:14:40;12.70;99.90
16643;DHT22;8435;52.184;5.406;2022-11-15T06:17:07;12.70;99.90
16643;DHT22;8435;52.184;5.406;2022-11-15T06:19:35;12.70;99.90
16643;DHT22;8435;52.184;5.406;2022-11-15T06:22:02;12.70;99.90
16643;DHT22;8435;52.184;5.406;2022-11-15T06:24:29;12.80;99.90
16643;DHT22;8435;52.184;5.406;2022-11-15T06:26:55;12.80;99.90
16643;DHT22;8435;52.184;5.406;2022-11-15T06:29:23;12.80;99.90
16643;DHT22;8435;52.184;5.406;2022-11-15T06:31:51;12.80;99.90
16643;DHT22;8435;52.184;5.406;2022-11-15T06:34:18;12.90;99.90
16643;DHT22;8435;52.184;5.406;2022-11-15T06:36:46;12.90;99.90
16643;DHT22;8435;52.184;5.406;2022-11-15T06:39:13;12.90;99.90
16643;DHT22;8435;52.184;5.406;2022-11-15T06:41:39;12.90;99.90
16643;DHT22;8435;52.184;5.406;2022-11-15T06:44:06;12.90;99.90
16643;DHT22;8435;52.184;5.406;2022-11-15T06:46:33;12.90;99.90
16643;DHT22;8435;52.184;5.406;2022-11-15T06:49:00;12.90;99.90
16643;DHT22;8435;52.184;5.406;2022-11-15T06:51:26;12.90;99.90
16643;DHT22;8435;52.184;5.406;2022-11-15T06:53:54;12.90;99.90
16643;DHT22;8435;52.184;5.406;2022-11-15T06:56:21;13.00;99.90
16643;DHT22;8435;52.184;5.406;2022-11-15T06:58:48;13.00;99.90
16643;DHT22;8435;52.184;5.406;2022-11-15T07:01:15;13.00;99.90
16643;DHT22;8435;52.184;5.406;2022-11-15T07:03:42;13.00;99.90
16643;DHT22;8435;52.184;5.406;2022-11-15T07:06:09;13.00;99.90
16643;DHT22;8435;52.184;5.406;2022-11-15T07:08:36;13.10;99.90
16643;DHT22;8435;52.184;5.406;2022-11-15T07:11:06;13.00;99.90
16643;DHT22;8435;52.184;5.406;2022-11-15T07:13:34;13.10;99.90
16643;DHT22;8435;52.184;5.406;2022-11-15T07:16:09;13.10;99.90
16643;DHT22;8435;52.184;5.406;2022-11-15T07:18:37;13.10;99.90
16643;DHT22;8435;52.184;5.406;2022-11-15T07:21:06;13.10;99.90
16643;DHT22;8435;52.184;5.406;2022-11-15T07:23:33;13.10;99.90
16643;DHT22;8435;52.184;5.406;2022-11-15T07:26:07;13.10;99.90
16643;DHT22;8435;52.184;5.406;2022-11-15T07:28:35;13.10;99.90
16643;DHT22;8435;52.184;5.406;2022-11-15T07:31:02;13.20;99.90
16643;DHT22;8435;52.184;5.406;2022-11-15T07:33:29;13.20;99.90
16643;DHT22;8435;52.184;5.406;2022-11-15T07:35:59;13.20;99.90
16643;DHT22;8435;52.184;5.406;2022-11-15T07:38:30;13.20;99.90
16643;DHT22;8435;52.184;5.406;2022-11-15T07:40:58;13.20;99.90
16643;DHT22;8435;52.184;5.406;2022-11-15T07:43:27;13.20;99.90
16643;DHT22;8435;52.184;5.406;2022-11-15T07:45:55;13.20;99.90
16643;DHT22;8435;52.184;5.406;2022-11-15T07:48:22;13.30;99.90
16643;DHT22;8435;52.184;5.406;2022-11-15T07:50:49;13.20;99.90
16643;DHT22;8435;52.184;5.406;2022-11-15T07:53:16;13.20;99.90
16643;DHT22;8435;52.184;5.406;2022-11-15T07:55:42;13.30;99.90
16643;DHT22;8435;52.184;5.406;2022-11-15T07:58:11;13.30;99.90
16643;DHT22;8435;52.184;5.406;2022-11-15T08:00:39;13.30;99.90
16643;DHT22;8435;52.184;5.406;2022-11-15T08:03:11;13.30;99.90
16643;DHT22;8435;52.184;5.406;2022-11-15T08:05:39;13.30;99.90
16643;DHT22;8435;52.184;5.406;2022-11-15T08:08:10;13.30;99.90
16643;DHT22;8435;52.184;5.406;2022-11-15T08:10:37;13.40;99.90
16643;DHT22;8435;52.184;5.406;2022-11-15T08:13:06;13.40;99.90
16643;DHT22;8435;52.184;5.406;2022-11-15T08:15:34;13.40;99.90
16643;DHT22;8435;52.184;5.406;2022-11-15T08:18:04;13.40;99.90
16643;DHT22;8435;52.184;5.406;2022-11-15T08:20:31;13.50;99.90
16643;DHT22;8435;52.184;5.406;2022-11-15T08:23:03;13.50;99.90
16643;DHT22;8435;52.184;5.406;2022-11-15T08:25:31;13.50;99.90
16643;DHT22;8435;52.184;5.406;2022-11-15T08:28:00;13.50;99.90
16643;DHT22;8435;52.184;5.406;2022-11-15T08:30:30;13.50;99.90
16643;DHT22;8435;52.184;5.406;2022-11-15T08:32:58;13.60;99.90
16643;DHT22;8435;52.184;5.406;2022-11-15T08:35:26;13.60;99.90
16643;DHT22;8435;52.184;5.406;2022-11-15T08:37:53;13.60;99.90
16643;DHT22;8435;52.184;5.406;2022-11-15T08:40:20;13.60;99.90
16643;DHT22;8435;52.184;5.406;2022-11-15T08:42:48;13.70;99.90
16643;DHT22;8435;52.184;5.406;2022-11-15T08:45:15;13.70;99.90
16643;DHT22;8435;52.184;5.406;2022-11-15T08:47:42;13.70;99.90
16643;DHT22;8435;52.184;5.406;2022-11-15T08:50:09;13.70;99.90
16643;DHT22;8435;52.184;5.406;2022-11-15T08:52:37;13.70;99.90
16643;DHT22;8435;52.184;5.406;2022-11-15T08:55:05;13.70;99.90
16643;DHT22;8435;52.184;5.406;2022-11-15T08:57:32;13.70;99.90
16643;DHT22;8435;52.184;5.406;2022-11-15T08:59:59;13.70;99.90
16643;DHT22;8435;52.184;5.406;2022-11-15T09:02:26;13.80;99.90
16643;DHT22;8435;52.184;5.406;2022-11-15T09:04:53;13.80;99.90
16643;DHT22;8435;52.184;5.406;2022-11-15T09:07:24;13.80;99.90
16643;DHT22;8435;52.184;5.406;2022-11-15T09:09:56;13.80;99.90
16643;DHT22;8435;52.184;5.406;2022-11-15T09:12:23;13.90;99.90
16643;DHT22;8435;52.184;5.406;2022-11-15T09:14:50;13.90;99.90
16643;DHT22;8435;52.184;5.406;2022-11-15T09:17:16;13.90;99.90
16643;DHT22;8435;52.184;5.406;2022-11-15T09:19:43;13.90;99.90
16643;DHT22;8435;52.184;5.406;2022-11-15T09:22:10;14.00;99.90
16643;DHT22;8435;52.184;5.406;2022-11-15T09:24:46;14.00;99.90
16643;DHT22;8435;52.184;5.406;2022-11-15T09:27:14;14.00;99.90
16643;DHT22;8435;52.184;5.406;2022-11-15T09:29:41;14.10;99.90
16643;DHT22;8435;52.184;5.406;2022-11-15T09:32:08;14.10;99.90
16643;DHT22;8435;52.184;5.406;2022-11-15T09:34:35;14.20;99.90
16643;DHT22;8435;52.184;5.406;2022-11-15T09:37:02;14.20;99.90
16643;DHT22;8435;52.184;5.406;2022-11-15T09:39:28;14.20;99.90
16643;DHT22;8435;52.184;5.406;2022-11-15T09:42:05;14.30;99.90
16643;DHT22;8435;52.184;5.406;2022-11-15T09:44:52;14.20;99.90
16643;DHT22;8435;52.184;5.406;2022-11-15T09:47:43;14.30;99.90
16643;DHT22;8435;52.184;5.406;2022-11-15T09:50:17;14.20;99.90
16643;DHT22;8435;52.184;5.406;2022-11-15T09:52:45;14.30;99.90
16643;DHT22;8435;52.184;5.406;2022-11-15T09:55:14;14.30;99.90
16643;DHT22;8435;52.184;5.406;2022-11-15T09:57:52;14.30;99.90
16643;DHT22;8435;52.184;5.406;2022-11-15T10:00:31;14.40;99.90
16643;DHT22;8435;52.184;5.406;2022-11-15T10:03:09;14.30;99.90
16643;DHT22;8435;52.184;5.406;2022-11-15T10:05:40;14.30;99.90
16643;DHT22;8435;52.184;5.406;2022-11-15T10:08:17;14.30;99.90
16643;DHT22;8435;52.184;5.406;2022-11-15T10:10:56;14.40;99.90
16643;DHT22;8435;52.184;5.406;2022-11-15T10:13:24;14.40;99.90
16643;DHT22;8435;52.184;5.406;2022-11-15T10:15:54;14.50;99.90
16643;DHT22;8435;52.184;5.406;2022-11-15T10:18:30;14.50;99.90
16643;DHT22;8435;52.184;5.406;2022-11-15T10:21:12;14.50;99.90
16643;DHT22;8435;52.184;5.406;2022-11-15T10:23:54;14.50;99.90
16643;DHT22;8435;52.184;5.406;2022-11-15T10:26:21;14.50;99.90
16643;DHT22;8435;52.184;5.406;2022-11-15T10:28:49;14.50;99.90
16643;DHT22;8435;52.184;5.406;2022-11-15T10:31:23;14.50;99.90
16643;DHT22;8435;52.184;5.406;2022-11-15T10:33:51;14.50;99.90
16643;DHT22;8435;52.184;5.406;2022-11-15T10:36:26;14.50;99.90
16643;DHT22;8435;52.184;5.406;2022-11-15T10:38:57;14.50;99.90
16643;DHT22;8435;52.184;5.406;2022-11-15T10:41:35;14.50;99.90
16643;DHT22;8435;52.184;5.406;2022-11-15T10:44:12;14.50;99.90
16643;DHT22;8435;52.184;5.406;2022-11-15T10:46:46;14.50;99.90
16643;DHT22;8435;52.184;5.406;2022-11-15T10:49:15;14.50;99.90
16643;DHT22;8435;52.184;5.406;2022-11-15T10:51:46;14.50;99.90
16643;DHT22;8435;52.184;5.406;2022-11-15T10:54:16;14.50;99.90
16643;DHT22;8435;52.184;5.406;2022-11-15T10:56:49;14.50;99.90
16643;DHT22;8435;52.184;5.406;2022-11-15T10:59:23;14.50;99.90
16643;DHT22;8435;52.184;5.406;2022-11-15T11:01:52;14.50;99.90
16643;DHT22;8435;52.184;5.406;2022-11-15T11:04:18;14.50;99.90
16643;DHT22;8435;52.184;5.406;2022-11-15T11:06:50;14.50;99.90
16643;DHT22;8435;52.184;5.406;2022-11-15T11:09:30;14.50;99.90
16643;DHT22;8435;52.184;5.406;2022-11-15T11:11:57;14.50;99.90
16643;DHT22;8435;52.184;5.406;2022-11-15T11:14:33;14.60;99.90
16643;DHT22;8435;52.184;5.406;2022-11-15T11:17:09;14.60;99.90
16643;DHT22;8435;52.184;5.406;2022-11-15T11:19:49;14.60;99.90
16643;DHT22;8435;52.184;5.406;2022-11-15T11:22:23;14.60;99.90
16643;DHT22;8435;52.184;5.406;2022-11-15T11:25:03;14.60;99.90
16643;DHT22;8435;52.184;5.406;2022-11-15T11:27:39;14.70;99.90
16643;DHT22;8435;52.184;5.406;2022-11-15T11:30:11;14.70;99.90
16643;DHT22;8435;52.184;5.406;2022-11-15T11:33:02;14.80;99.90
16643;DHT22;8435;52.184;5.406;2022-11-15T11:35:35;14.80;99.80
16643;DHT22;8435;52.184;5.406;2022-11-15T11:38:17;14.80;99.90
16643;DHT22;8435;52.184;5.406;2022-11-15T11:40:58;14.80;99.90
16643;DHT22;8435;52.184;5.406;2022-11-15T11:43:33;14.80;99.80
16643;DHT22;8435;52.184;5.406;2022-11-15T11:46:31;14.80;99.80
16643;DHT22;8435;52.184;5.406;2022-11-15T11:49:08;14.80;99.70
16643;DHT22;8435;52.184;5.406;2022-11-15T11:51:38;14.90;99.80
16643;DHT22;8435;52.184;5.406;2022-11-15T11:54:12;14.80;99.70
16643;DHT22;8435;52.184;5.406;2022-11-15T11:56:44;14.90;99.70
16643;DHT22;8435;52.184;5.406;2022-11-15T11:59:17;14.90;99.70
16643;DHT22;8435;52.184;5.406;2022-11-15T12:01:46;14.80;99.60
16643;DHT22;8435;52.184;5.406;2022-11-15T12:04:19;14.80;99.70
16643;DHT22;8435;52.184;5.406;2022-11-15T12:06:50;14.80;99.30
16643;DHT22;8435;52.184;5.406;2022-11-15T12:09:22;14.80;99.40
16643;DHT22;8435;52.184;5.406;2022-11-15T12:11:57;14.90;99.40
16643;DHT22;8435;52.184;5.406;2022-11-15T12:14:29;14.90;99.30
16643;DHT22;8435;52.184;5.406;2022-11-15T12:16:58;14.90;99.20
16643;DHT22;8435;52.184;5.406;2022-11-15T12:19:27;14.90;99.10
16643;DHT22;8435;52.184;5.406;2022-11-15T12:22:00;14.90;99.20
16643;DHT22;8435;52.184;5.406;2022-11-15T12:24:29;14.90;98.90
16643;DHT22;8435;52.184;5.406;2022-11-15T12:27:01;15.00;98.90
16643;DHT22;8435;52.184;5.406;2022-11-15T12:29:33;14.90;98.70
16643;DHT22;8435;52.184;5.406;2022-11-15T12:32:01;15.00;98.40
16643;DHT22;8435;52.184;5.406;2022-11-15T12:34:39;15.00;98.40
16643;DHT22;8435;52.184;5.406;2022-11-15T12:40:29;15.00;97.80
16643;DHT22;8435;52.184;5.406;2022-11-15T12:43:03;15.00;98.10
16643;DHT22;8435;52.184;5.406;2022-11-15T12:45:31;15.00;98.00
16643;DHT22;8435;52.184;5.406;2022-11-15T12:51:06;15.00;97.60
16643;DHT22;8435;52.184;5.406;2022-11-15T12:53:34;15.00;97.70
16643;DHT22;8435;52.184;5.406;2022-11-15T12:56:22;15.00;97.60
16643;DHT22;8435;52.184;5.406;2022-11-15T12:58:54;15.10;97.30
16643;DHT22;8435;52.184;5.406;2022-11-15T13:01:59;15.10;97.70
16643;DHT22;8435;52.184;5.406;2022-11-15T13:04:28;15.10;97.00
16643;DHT22;8435;52.184;5.406;2022-11-15T13:06:59;15.10;97.40
16643;DHT22;8435;52.184;5.406;2022-11-15T13:09:54;15.10;97.30
16643;DHT22;8435;52.184;5.406;2022-11-15T13:12:54;15.10;97.20
16643;DHT22;8435;52.184;5.406;2022-11-15T13:15:38;15.10;97.00
16643;DHT22;8435;52.184;5.406;2022-11-15T13:18:36;15.10;97.20
16643;DHT22;8435;52.184;5.406;2022-11-15T13:21:05;15.10;96.40
16643;DHT22;8435;52.184;5.406;2022-11-15T13:23:55;15.10;96.90
16643;DHT22;8435;52.184;5.406;2022-11-15T13:26:22;15.10;97.10
16643;DHT22;8435;52.184;5.406;2022-11-15T13:28:51;15.10;97.00
16643;DHT22;8435;52.184;5.406;2022-11-15T13:31:29;15.10;97.10
16643;DHT22;8435;52.184;5.406;2022-11-15T13:33:59;15.10;97.00
16643;DHT22;8435;52.184;5.406;2022-11-15T13:36:29;15.10;96.90
16643;DHT22;8435;52.184;5.406;2022-11-15T13:39:02;15.10;96.90
16643;DHT22;8435;52.184;5.406;2022-11-15T13:41:32;15.10;96.90
16643;DHT22;8435;52.184;5.406;2022-11-15T13:44:00;15.10;97.00
16643;DHT22;8435;52.184;5.406;2022-11-15T13:46:30;15.10;97.00
16643;DHT22;8435;52.184;5.406;2022-11-15T13:49:00;15.00;96.80
16643;DHT22;8435;52.184;5.406;2022-11-15T13:51:33;15.00;96.80
16643;DHT22;8435;52.184;5.406;2022-11-15T13:54:08;15.00;96.90
16643;DHT22;8435;52.184;5.406;2022-11-15T13:56:36;14.90;96.70
16643;DHT22;8435;52.184;5.406;2022-11-15T13:59:09;14.90;96.90
16643;DHT22;8435;52.184;5.406;2022-11-15T14:01:41;14.80;96.70
16643;DHT22;8435;52.184;5.406;2022-11-15T14:04:11;14.80;96.60
16643;DHT22;8435;52.184;5.406;2022-11-15T14:06:44;14.80;96.60
16643;DHT22;8435;52.184;5.406;2022-11-15T14:09:33;14.70;96.60
16643;DHT22;8435;52.184;5.406;2022-11-15T14:14:45;14.70;96.90
16643;DHT22;8435;52.184;5.406;2022-11-15T14:17:20;14.60;96.60
16643;DHT22;8435;52.184;5.406;2022-11-15T14:19:49;14.60;96.70
16643;DHT22;8435;52.184;5.406;2022-11-15T14:22:19;14.60;96.70
16643;DHT22;8435;52.184;5.406;2022-11-15T14:25:07;14.60;96.70
16643;DHT22;8435;52.184;5.406;2022-11-15T14:27:34;14.50;96.30
16643;DHT22;8435;52.184;5.406;2022-11-15T14:30:01;14.50;96.70
16643;DHT22;8435;52.184;5.406;2022-11-15T14:32:30;14.50;96.80
16643;DHT22;8435;52.184;5.406;2022-11-15T14:35:13;14.50;96.80
16643;DHT22;8435;52.184;5.406;2022-11-15T14:37:41;14.50;96.70
16643;DHT22;8435;52.184;5.406;2022-11-15T14:40:15;14.50;97.00
16643;DHT22;8435;52.184;5.406;2022-11-15T14:42:43;14.50;96.80
16643;DHT22;8435;52.184;5.406;2022-11-15T14:45:12;14.50;96.80
16643;DHT22;8435;52.184;5.406;2022-11-15T14:47:40;14.50;96.80
16643;DHT22;8435;52.184;5.406;2022-11-15T14:50:11;14.50;96.80
16643;DHT22;8435;52.184;5.406;2022-11-15T14:52:37;14.50;96.70
16643;DHT22;8435;52.184;5.406;2022-11-15T14:55:15;14.60;96.80
16643;DHT22;8435;52.184;5.406;2022-11-15T14:57:43;14.50;96.40
16643;DHT22;8435;52.184;5.406;2022-11-15T15:00:11;14.50;96.70
16643;DHT22;8435;52.184;5.406;2022-11-15T15:02:39;14.60;96.60
16643;DHT22;8435;52.184;5.406;2022-11-15T15:05:13;14.60;96.60
16643;DHT22;8435;52.184;5.406;2022-11-15T15:07:41;14.60;96.40
16643;DHT22;8435;52.184;5.406;2022-11-15T15:10:10;14.60;96.40
16643;DHT22;8435;52.184;5.406;2022-11-15T15:12:37;14.60;96.50
16643;DHT22;8435;52.184;5.406;2022-11-15T15:15:05;14.50;96.50
16643;DHT22;8435;52.184;5.406;2022-11-15T15:17:32;14.60;96.40
16643;DHT22;8435;52.184;5.406;2022-11-15T15:20:00;14.60;96.40
16643;DHT22;8435;52.184;5.406;2022-11-15T15:22:30;14.60;96.40
16643;DHT22;8435;52.184;5.406;2022-11-15T15:24:57;14.60;96.30
16643;DHT22;8435;52.184;5.406;2022-11-15T15:27:25;14.60;96.30
16643;DHT22;8435;52.184;5.406;2022-11-15T15:29:54;14.60;96.20
16643;DHT22;8435;52.184;5.406;2022-11-15T15:32:21;14.60;96.20
16643;DHT22;8435;52.184;5.406;2022-11-15T15:34:50;14.60;96.20
16643;DHT22;8435;52.184;5.406;2022-11-15T15:37:23;14.50;95.90
16643;DHT22;8435;52.184;5.406;2022-11-15T15:39:51;14.50;95.90
16643;DHT22;8435;52.184;5.406;2022-11-15T15:42:18;14.60;95.90
16643;DHT22;8435;52.184;5.406;2022-11-15T15:44:47;14.60;95.80
16643;DHT22;8435;52.184;5.406;2022-11-15T15:47:16;14.60;95.70
16643;DHT22;8435;52.184;5.406;2022-11-15T15:49:43;14.50;95.70
16643;DHT22;8435;52.184;5.406;2022-11-15T15:52:13;14.60;95.80
16643;DHT22;8435;52.184;5.406;2022-11-15T15:54:40;14.50;95.90
16643;DHT22;8435;52.184;5.406;2022-11-15T15:57:08;14.50;96.00
16643;DHT22;8435;52.184;5.406;2022-11-15T15:59:37;14.50;95.80
16643;DHT22;8435;52.184;5.406;2022-11-15T16:02:06;14.60;96.00
16643;DHT22;8435;52.184;5.406;2022-11-15T16:04:32;14.60;95.80
16643;DHT22;8435;52.184;5.406;2022-11-15T16:07:00;14.50;95.80
16643;DHT22;8435;52.184;5.406;2022-11-15T16:09:27;14.50;95.80
16643;DHT22;8435;52.184;5.406;2022-11-15T16:12:12;14.50;95.90
16643;DHT22;8435;52.184;5.406;2022-11-15T16:14:39;14.60;95.80
16643;DHT22;8435;52.184;5.406;2022-11-15T16:17:09;14.60;95.80
16643;DHT22;8435;52.184;5.406;2022-11-15T16:19:36;14.60;95.80
16643;DHT22;8435;52.184;5.406;2022-11-15T16:22:03;14.50;95.80